Duncan, OR

5:40 AM PDT on March 23, 2017 (GMT -0700)
MUP211 | | Change Station
Active Advisory: Flood Warning

Elev 2056 ft 45.62 °N, 118.35 °W | Updated 1 hour ago

Mostly Cloudy
Mostly Cloudy
38.0 °F
Feels Like 38.0 °F
N
1.0
Wind Variable Wind from East
Gusts 2.0 mph

Today
High -- | Low -- °F
--% Chance of Precip.
Yesterday
High -- | Low -- °F
Precip. -- in
Pressure 30.03 in
Visibility 10.0 miles
Clouds Mostly Cloudy 2400 ft
Dew Point Not available.
Humidity Not available.
Rainfall in
Snow Depth Not available.
6:50 AM 7:10 PM
Waning Crescent, 23% visible
SPECI KMEH 231227Z AUTO 00000KT 10SM BKN024 M01/M03 A3003 RMK AO2 I1000 T10111033
Pressure 30.03 in
Visibility 10.0 miles
Clouds Mostly Cloudy 2400 ft
Dew Point Not available.
Humidity Not available.
Rainfall in
Snow Depth Not available.
6:50 AM 7:10 PM
Waning Crescent, 23% visible
SPECI KMEH 231227Z AUTO 00000KT 10SM BKN024 M01/M03 A3003 RMK AO2 I1000 T10111033

Get Your Daily Forecast Email!

Thanks for signing up!

Be on the lookout for a verification email in your inbox.

You'll start receiving severe weather alerts in your inbox..

×

10-Day Weather Forecast

Almanac

Astronomy

Mar. 23, 2017 Rise Set
Actual Time
Civil Twilight
Nautical Twilight
Astronomical Twilight
Moon
Length of Visible Light
Length of Day
Tomorrow will be .
, % of the Moon is Illuminated

Today's Extremes

State Highs State Lows

Community

WunderPhotos

Upload Photos

1,962,540 photos uploaded!

WunderBlog® & News

Nearby

Air Quality

  Air Quality AQ Index Pollutant
Not available.

Snow Depth

Station Depth Elevation

Earthquake Activity

City Distance Mag. Time & Date
Minimum magnitude displayed is 2.5.

Earthquake Activity

City Distance Mag. Time & Date
Minimum magnitude displayed is 2.5.

Coastal Water Temperatures

Place Temperature

Stations

Nearby Weather Stations

Station Location Temp. Windchill Dew Point Humidity Wind Precip. Elev Updated Type
                   

Watches & Warnings

Flood Warning
Issued: 3:07 AM PDT Mar. 23, 2017 – National Weather Service

The Flood Warning continues for
the grande ronde river at Troy.
* Until Tuesday afternoon.
* At 3:00 am Thursday, the stage was 9.7 feet.
* Flood stage is 10.0 feet.
* Minor flooding is forecast.
* Forecast... rise above flood stage by Saturday morning and continue
to rise to near 10.3 feet by Saturday afternoon. The river will
fall below flood stage by Tuesday morning.


Lat... Lon 4591 11743 4595 11745 4599 11739 4605 11731 4602 11727